Monday, December 18, 2017, 5:49 AM EST
Back to Local

KOXC, Oxford, Waterbury-oxford Airport

Location: Oxford, CT, United States Lat: 41.483
Local Time: 5:49 AM EST (10:49 GMT) Lon: -73.133
Time Zone: US/Eastern Elev: 725 ft

Show me the last for .
Show Decoded

2017-12-18 04:51 METAR KOXC 180951Z AUTO 09003KT 5SM -SN OVC015 M03/M09 A3014 RMK AO2 SLP229
                 P0000 T10281094 FZRANO =
2017-12-18 03:51 METAR KOXC 180851Z AUTO 06003KT 9SM -SN OVC015 M03/M09 A3015 RMK AO2 SNB41
                 SLP229 P0000 60000 T10281089 58009 FZRANO =
2017-12-18 02:51 METAR KOXC 180751Z AUTO 00000KT 10SM OVC015 M03/M09 A3017 RMK AO2 SLP238
                 T10281094 FZRANO =
2017-12-18 01:51 METAR KOXC 180651Z AUTO 00000KT 10SM OVC015 M03/M09 A3017 RMK AO2 SLP237
                 T10281089 FZRANO =
2017-12-18 00:51 METAR KOXC 180551Z AUTO 00000KT 10SM OVC015 M03/M09 A3017 RMK AO2 SLP237 60000
                 T10281094 11028 21033 58015 FZRANO =
2017-12-18 00:10 METAR KOXC 180510Z AUTO 00000KT 10SM BKN019 BKN060 OVC110 M03/M10 A3018 RMK AO2
                 FZRANO =
2017-12-17 23:51 METAR KOXC 180451Z AUTO 00000KT 10SM FEW019 BKN060 OVC100 M03/M10 A3019 RMK AO2
                 SLP243 T10281100 400061117 FZRANO =
2017-12-17 22:51 METAR KOXC 180351Z AUTO 06003KT 10SM BKN100 M03/M10 A3021 RMK AO2 UPB0257E08
                 SLP251 P0000 T10331100 FZRANO =
2017-12-17 21:51 METAR KOXC 180251Z AUTO 00000KT 10SM SCT043 OVC060 M03/M09 A3022 RMK AO2 SLP254
                 T10281094 58007 FZRANO =
2017-12-17 20:51 METAR KOXC 180151Z 00000KT 10SM BKN070 OVC090 M03/M10 A3024 RMK AO2 SLP263
                 T10281100 =
2017-12-17 19:51 METAR KOXC 180051Z 00000KT 10SM OVC100 M03/M11 A3025 RMK AO2 SLP270 T10281106 =
2017-12-17 18:51 METAR KOXC 172351Z 00000KT 10SM CLR M03/M12 A3024 RMK AO2 SLP265 T10331117 10006
                 21033 53007 =
2017-12-17 17:51 METAR KOXC 172251Z 00000KT 10SM CLR M03/M12 A3023 RMK AO2 SLP260 T10331117 =
2017-12-17 16:51 METAR KOXC 172151Z 30003KT 10SM CLR M02/M11 A3022 =
2017-12-17 15:51 METAR KOXC 172051Z 30003KT 10SM CLR M02/M11 A3022 RMK AO2 SLP258 T10171111 55003
                 =
2017-12-17 14:51 METAR KOXC 171951Z 00000KT 10SM CLR M02/M09 A3021 RMK AO2 SLP257 T10171094 =
2017-12-17 13:51 METAR KOXC 171851Z 00000KT 10SM FEW060 M01/M09 A3020 RMK AO2 SLP251 T10061094 =
2017-12-17 12:51 METAR KOXC 171751Z COR 23004KT 10SM BKN060 M01/M09 A3023 RMK AO2 SLP259
                 T10061094 10000 21106 58012 =
2017-12-17 11:51 METAR KOXC 171651Z 32004KT 10SM BKN065 M01/M11 A3023 RMK AO2 SLP261 T10111106 =
2017-12-17 10:51 METAR KOXC 171551Z 35009KT 10SM CLR M03/M11 A3025 RMK AO2 SLP268 T10281106 =
2017-12-17 09:51 METAR KOXC 171451Z 34007KT 10SM CLR M04/M09 A3026 RMK AO2 SLP271 T10391094 51011
                 =
2017-12-17 08:51 METAR KOXC 171351Z 36007KT 10SM BKN090 M07/M11 A3025 RMK AO2 SLP268 T10721106 =
2017-12-17 07:51 METAR KOXC 171251Z 01006KT 10SM CLR M11/M13 A3024 RMK AO2 SLP267 T11061128 =
2017-12-17 06:51 METAR KOXC 171151Z 36006KT 10SM CLR M11/M13 A3023 RMK AO2 SLP262 T11061128 11083
                 21117 50001 =
2017-12-17 05:51 METAR KOXC 171051Z AUTO 35005KT 10SM CLR M09/M12 A3023 RMK AO2 SLP263 T10941122
                 FZRANO =

Support USWX by starting your Amazon purchase here.